createdAt,value
2023-02-19T00:02:53.603Z,5.82
2023-02-19T00:06:02.942Z,5.84
2023-02-19T00:09:11.700Z,5.93
2023-02-19T00:12:17.672Z,6.02
2023-02-19T00:15:22.739Z,5.91
2023-02-19T00:18:27.851Z,5.95
2023-02-19T00:21:33.913Z,6.07
2023-02-19T00:24:39.250Z,6.13
2023-02-19T00:27:44.692Z,6.16
2023-02-19T00:30:50.215Z,6.19
2023-02-19T00:33:59.072Z,6.09
2023-02-19T00:37:04.652Z,6.02
2023-02-19T00:40:10.341Z,6.06
2023-02-19T00:43:16.098Z,6.10
2023-02-19T00:46:28.934Z,5.99
2023-02-19T00:49:34.513Z,6.03
2023-02-19T00:52:40.259Z,6.07
2023-02-19T00:55:46.134Z,6.03
2023-02-19T00:58:52.543Z,6.04
2023-02-19T01:01:58.451Z,6.05
2023-02-19T01:05:04.563Z,5.99
2023-02-19T01:08:10.935Z,5.95
2023-02-19T01:11:17.364Z,5.90
2023-02-19T01:14:22.630Z,5.95
2023-02-19T01:17:28.007Z,5.86
2023-02-19T01:20:33.637Z,5.90
2023-02-19T01:23:39.220Z,5.91
2023-02-19T01:26:45.255Z,5.86
2023-02-19T01:29:51.282Z,5.90
2023-02-19T01:32:56.939Z,5.92
2023-02-19T01:36:07.555Z,5.84
2023-02-19T01:39:13.611Z,5.86
2023-02-19T01:42:18.906Z,5.79
2023-02-19T01:45:26.356Z,5.67
2023-02-19T01:48:38.578Z,5.50
2023-02-19T01:51:53.528Z,5.54
2023-02-19T01:55:01.888Z,5.69
2023-02-19T01:58:09.616Z,5.72
2023-02-19T02:01:16.710Z,5.66
2023-02-19T02:04:21.998Z,5.65
2023-02-19T02:07:46.390Z,5.58
2023-02-19T02:10:53.243Z,5.64
2023-02-19T02:14:00.659Z,5.60
2023-02-19T02:17:35.169Z,5.66
2023-02-19T02:20:58.974Z,5.51
2023-02-19T02:24:55.550Z,5.34
2023-02-19T02:28:23.382Z,5.47
2023-02-19T02:31:40.347Z,5.54
2023-02-19T02:35:19.589Z,5.45
2023-02-19T02:38:30.031Z,5.24
2023-02-19T02:41:35.853Z,5.18
2023-02-19T02:44:42.494Z,4.76
2023-02-19T02:47:57.767Z,4.33
2023-02-19T02:51:19.301Z,4.60
2023-02-19T02:54:53.604Z,4.47
2023-02-19T02:58:00.645Z,4.41
2023-02-19T03:01:34.968Z,4.52
2023-02-19T03:05:13.777Z,4.49
2023-02-19T03:08:34.642Z,4.51
2023-02-19T03:12:02.160Z,4.34
2023-02-19T03:15:29.362Z,4.47
2023-02-19T03:18:57.417Z,4.51
2023-02-19T03:22:22.888Z,4.47
2023-02-19T03:25:51.220Z,4.43
2023-02-19T03:29:23.134Z,4.51
2023-02-19T03:32:37.487Z,4.60
2023-02-19T03:35:50.261Z,4.39
2023-02-19T03:39:02.704Z,4.51
2023-02-19T03:42:14.773Z,4.41
2023-02-19T03:45:30.719Z,4.30
2023-02-19T03:48:54.727Z,4.40
2023-02-19T03:52:03.329Z,4.31
2023-02-19T03:55:12.731Z,4.28
2023-02-19T03:58:41.289Z,4.04
2023-02-19T04:01:56.851Z,4.19
2023-02-19T04:05:25.425Z,4.19
2023-02-19T04:08:35.964Z,4.03
2023-02-19T04:11:44.092Z,4.29
2023-02-19T04:15:02.468Z,4.26
2023-02-19T04:18:11.516Z,4.16
2023-02-19T04:21:19.110Z,3.73
2023-02-19T04:24:43.463Z,4.16
2023-02-19T04:27:49.310Z,4.06
2023-02-19T04:30:54.934Z,4.09
2023-02-19T04:34:00.615Z,3.96
2023-02-19T04:37:06.817Z,3.92
2023-02-19T04:40:12.196Z,3.82
2023-02-19T04:43:17.580Z,3.96
2023-02-19T04:46:22.951Z,3.97
2023-02-19T04:49:28.298Z,4.32
2023-02-19T04:52:33.744Z,4.18
2023-02-19T04:55:39.980Z,4.31
2023-02-19T04:58:45.793Z,4.37
2023-02-19T05:01:51.362Z,4.36
2023-02-19T05:04:56.739Z,4.62
2023-02-19T05:08:02.125Z,4.44
2023-02-19T05:11:11.322Z,4.18
2023-02-19T05:14:17.704Z,4.46
2023-02-19T05:17:23.249Z,4.59
2023-02-19T05:20:28.411Z,4.59
2023-02-19T05:23:34.152Z,4.14
2023-02-19T05:26:39.352Z,4.37
2023-02-19T05:29:44.970Z,4.35
2023-02-19T05:32:50.472Z,4.26
2023-02-19T05:35:56.372Z,4.46
2023-02-19T05:39:01.731Z,4.28
2023-02-19T05:42:07.432Z,4.36
2023-02-19T05:45:13.270Z,3.83
2023-02-19T05:48:18.386Z,4.16
2023-02-19T05:51:25.669Z,4.20
2023-02-19T05:54:31.421Z,4.27
2023-02-19T05:57:48.181Z,4.26
2023-02-19T06:00:54.722Z,4.23
2023-02-19T06:04:00.605Z,4.37
2023-02-19T06:07:05.646Z,4.27
2023-02-19T06:10:12.444Z,4.15
2023-02-19T06:13:17.980Z,4.11
2023-02-19T06:16:23.480Z,3.91
2023-02-19T06:19:30.107Z,3.95
2023-02-19T06:22:35.698Z,3.94
2023-02-19T06:25:41.776Z,3.92
2023-02-19T06:28:49.143Z,3.52
2023-02-19T06:31:54.544Z,3.91
2023-02-19T06:34:59.932Z,3.99
2023-02-19T06:38:04.733Z,3.80
2023-02-19T06:41:11.316Z,3.93
2023-02-19T06:44:17.035Z,4.01
2023-02-19T06:47:25.138Z,4.10
2023-02-19T06:50:30.813Z,3.84
2023-02-19T06:53:35.834Z,3.77
2023-02-19T06:56:44.859Z,3.93
2023-02-19T06:59:51.564Z,3.78
2023-02-19T07:02:57.027Z,3.94
2023-02-19T07:06:02.355Z,4.04
2023-02-19T07:09:09.058Z,3.77
2023-02-19T07:12:14.227Z,3.89
2023-02-19T07:15:19.239Z,4.08
2023-02-19T07:18:24.248Z,4.08
2023-02-19T07:21:30.487Z,4.01
2023-02-19T07:24:35.694Z,3.97
2023-02-19T07:27:41.115Z,4.32
2023-02-19T07:30:46.395Z,3.93
2023-02-19T07:33:52.268Z,3.96
2023-02-19T07:36:57.758Z,3.80
2023-02-19T07:40:03.624Z,3.89
2023-02-19T07:43:08.731Z,3.87
2023-02-19T07:46:14.489Z,3.52
2023-02-19T07:49:19.771Z,4.01
2023-02-19T07:52:25.071Z,4.22
2023-02-19T07:55:32.877Z,4.39
2023-02-19T07:58:38.695Z,4.63
2023-02-19T08:02:02.162Z,4.51
2023-02-19T08:05:07.331Z,4.75
2023-02-19T08:08:14.929Z,4.67
2023-02-19T08:11:38.653Z,4.72
2023-02-19T08:14:43.932Z,4.85
2023-02-19T08:17:48.746Z,4.94
2023-02-19T08:20:56.068Z,4.85
2023-02-19T08:24:01.611Z,5.09
2023-02-19T08:27:07.562Z,5.01
2023-02-19T08:30:12.881Z,5.27
2023-02-19T08:33:21.054Z,5.12
2023-02-19T08:36:26.507Z,5.21
2023-02-19T08:39:32.722Z,5.25
2023-02-19T08:42:37.841Z,5.32
2023-02-19T08:45:47.637Z,4.98
2023-02-19T08:48:52.760Z,4.96
2023-02-19T08:51:58.194Z,5.19
2023-02-19T08:55:05.939Z,5.07
2023-02-19T08:58:11.649Z,5.37
2023-02-19T09:01:19.068Z,5.62
2023-02-19T09:04:24.016Z,5.85
2023-02-19T09:07:29.382Z,5.83
2023-02-19T09:10:34.795Z,6.06
2023-02-19T09:13:40.154Z,5.95
2023-02-19T09:16:45.704Z,6.05
2023-02-19T09:19:52.119Z,6.11
2023-02-19T09:22:59.393Z,6.27
2023-02-19T09:26:08.873Z,6.29
2023-02-19T09:29:15.045Z,6.33
2023-02-19T09:32:20.480Z,6.34
2023-02-19T09:35:25.940Z,6.54
2023-02-19T09:38:31.197Z,6.56
2023-02-19T09:41:38.038Z,6.60
2023-02-19T09:44:48.367Z,6.73
2023-02-19T09:47:58.414Z,6.84
2023-02-19T09:51:04.684Z,6.51
2023-02-19T09:55:31.781Z,6.75
2023-02-19T09:58:50.069Z,6.83
2023-02-19T10:02:03.463Z,6.81
2023-02-19T10:05:14.885Z,6.63
2023-02-19T10:08:22.157Z,6.45
2023-02-19T10:11:28.328Z,6.58
2023-02-19T10:14:42.305Z,6.21
2023-02-19T10:17:47.774Z,6.59
2023-02-19T10:20:53.693Z,6.55
2023-02-19T10:24:04.787Z,6.52
2023-02-19T10:27:15.384Z,6.55
2023-02-19T10:30:25.104Z,6.45
2023-02-19T10:33:30.882Z,6.43
2023-02-19T10:36:40.635Z,6.50
2023-02-19T10:39:49.290Z,6.76
2023-02-19T10:43:00.067Z,6.89
2023-02-19T10:46:08.606Z,6.74
2023-02-19T10:49:28.808Z,6.71
2023-02-19T10:52:36.738Z,6.75
2023-02-19T10:55:41.899Z,7.43
2023-02-19T10:58:47.467Z,7.30
2023-02-19T11:02:19.887Z,7.38
2023-02-19T11:05:25.318Z,7.16
2023-02-19T11:08:34.869Z,7.59
2023-02-19T11:11:40.769Z,7.52
2023-02-19T11:14:46.272Z,7.62
2023-02-19T11:18:08.438Z,7.79
2023-02-19T11:21:33.204Z,7.27
2023-02-19T11:24:40.702Z,7.48
2023-02-19T11:28:21.393Z,7.93
2023-02-19T11:31:35.791Z,8.00
2023-02-19T11:34:41.431Z,8.09
2023-02-19T11:38:01.284Z,8.26
2023-02-19T11:41:22.172Z,8.26
2023-02-19T11:44:46.799Z,8.33
2023-02-19T11:48:29.579Z,8.45
2023-02-19T11:52:27.796Z,8.72
2023-02-19T11:55:48.317Z,8.79
2023-02-19T11:59:22.946Z,8.73
2023-02-19T12:03:05.860Z,8.95
2023-02-19T12:06:27.127Z,9.13
2023-02-19T12:09:51.762Z,9.26
2023-02-19T12:13:09.305Z,8.97
2023-02-19T12:16:39.163Z,9.08
2023-02-19T12:20:23.598Z,9.13
2023-02-19T12:23:43.648Z,9.23
2023-02-19T12:26:54.670Z,9.42
2023-02-19T12:30:29.129Z,9.30
2023-02-19T12:33:46.635Z,9.53
2023-02-19T12:37:04.135Z,9.69
2023-02-19T12:40:15.876Z,9.86
2023-02-19T12:43:23.544Z,9.61
2023-02-19T12:46:54.222Z,9.97
2023-02-19T12:50:23.749Z,9.95
2023-02-19T12:53:55.189Z,10.16
2023-02-19T12:57:13.919Z,10.01
2023-02-19T13:00:31.675Z,9.89
2023-02-19T13:03:49.519Z,9.86
2023-02-19T13:07:14.349Z,9.85
2023-02-19T13:10:42.112Z,10.09
2023-02-19T13:14:01.403Z,10.38
2023-02-19T13:17:41.763Z,10.32
2023-02-19T13:20:49.113Z,10.53
2023-02-19T13:24:02.021Z,10.63
2023-02-19T13:27:13.921Z,10.63
2023-02-19T13:30:29.810Z,10.71
2023-02-19T13:34:13.441Z,10.79
2023-02-19T13:37:20.054Z,10.72
2023-02-19T13:40:35.535Z,10.79
2023-02-19T13:43:43.033Z,10.76
2023-02-19T13:46:50.401Z,11.01
2023-02-19T13:50:07.128Z,10.86
2023-02-19T13:53:44.820Z,10.95
2023-02-19T13:56:50.765Z,10.99
2023-02-19T13:59:58.033Z,11.04
2023-02-19T14:03:37.199Z,11.09
2023-02-19T14:07:04.349Z,11.09
2023-02-19T14:10:14.384Z,11.11
2023-02-19T14:13:51.333Z,11.04
2023-02-19T14:17:28.698Z,11.08
2023-02-19T14:20:45.741Z,11.28
2023-02-19T14:23:57.400Z,11.23
2023-02-19T14:27:03.724Z,11.24
2023-02-19T14:30:13.333Z,11.16
2023-02-19T14:33:25.308Z,11.16
2023-02-19T14:37:10.364Z,11.03
2023-02-19T14:40:27.283Z,11.00
2023-02-19T14:43:34.894Z,10.93
2023-02-19T14:46:50.406Z,10.93
2023-02-19T14:50:00.539Z,11.09
2023-02-19T14:53:08.209Z,11.13
2023-02-19T14:56:26.378Z,11.12
2023-02-19T14:59:31.946Z,11.15
2023-02-19T15:02:43.536Z,11.11
2023-02-19T15:05:59.763Z,11.09
2023-02-19T15:09:07.621Z,11.09
2023-02-19T15:12:25.662Z,11.04
2023-02-19T15:15:35.859Z,10.98
2023-02-19T15:18:46.581Z,10.90
2023-02-19T15:21:52.357Z,10.94
2023-02-19T15:25:02.561Z,10.99
2023-02-19T15:28:25.113Z,11.01
2023-02-19T15:31:30.725Z,10.93
2023-02-19T15:34:36.134Z,10.94
2023-02-19T15:37:42.184Z,10.92
2023-02-19T15:40:49.905Z,10.83
2023-02-19T15:44:28.388Z,10.82
2023-02-19T15:47:39.137Z,10.80
2023-02-19T15:50:49.825Z,10.74
2023-02-19T15:54:04.514Z,10.67
2023-02-19T15:57:19.305Z,10.63
2023-02-19T16:00:34.865Z,10.64
2023-02-19T16:03:40.763Z,10.56
2023-02-19T16:06:58.152Z,10.52
2023-02-19T16:10:21.031Z,10.46
2023-02-19T16:13:32.877Z,10.42
2023-02-19T16:16:42.461Z,10.41
2023-02-19T16:20:00.387Z,10.34
2023-02-19T16:23:15.185Z,10.24
2023-02-19T16:26:21.608Z,10.24
2023-02-19T16:29:32.405Z,10.19
2023-02-19T16:32:37.716Z,10.14
2023-02-19T16:35:45.321Z,10.08
2023-02-19T16:39:08.641Z,10.02
2023-02-19T16:42:14.805Z,9.83
2023-02-19T16:45:19.981Z,9.78
2023-02-19T16:48:26.109Z,9.75
2023-02-19T16:51:31.597Z,9.71
2023-02-19T16:54:37.300Z,9.62
2023-02-19T16:57:42.828Z,9.49
2023-02-19T17:00:48.570Z,9.47
2023-02-19T17:04:00.301Z,9.34
2023-02-19T17:07:06.015Z,9.42
2023-02-19T17:10:16.972Z,9.40
2023-02-19T17:13:22.741Z,9.33
2023-02-19T17:16:40.646Z,9.31
2023-02-19T17:19:46.254Z,9.43
2023-02-19T17:22:51.673Z,9.32
2023-02-19T17:25:57.713Z,9.39
2023-02-19T17:29:06.781Z,9.37
2023-02-19T17:32:12.776Z,9.41
2023-02-19T17:35:18.387Z,9.39
2023-02-19T17:38:23.897Z,9.26
2023-02-19T17:41:29.798Z,9.36
2023-02-19T17:44:35.355Z,9.30
2023-02-19T17:47:41.134Z,9.25
2023-02-19T17:50:49.522Z,9.25
2023-02-19T17:53:54.797Z,9.27
2023-02-19T17:57:00.245Z,9.26
2023-02-19T18:00:06.773Z,9.18
2023-02-19T18:03:17.874Z,9.18
2023-02-19T18:06:23.264Z,9.09
2023-02-19T18:09:29.333Z,9.09
2023-02-19T18:12:34.785Z,9.00
2023-02-19T18:15:40.264Z,9.05
2023-02-19T18:18:45.857Z,8.98
2023-02-19T18:21:52.070Z,9.05
2023-02-19T18:24:57.313Z,9.14
2023-02-19T18:28:03.379Z,9.08
2023-02-19T18:31:09.308Z,8.77
2023-02-19T18:34:19.687Z,8.80
2023-02-19T18:37:27.151Z,8.80
2023-02-19T18:40:32.772Z,8.88
2023-02-19T18:43:38.401Z,8.89
2023-02-19T18:46:44.130Z,8.80
2023-02-19T18:49:50.710Z,8.76
2023-02-19T18:52:56.367Z,8.79
2023-02-19T18:56:02.267Z,8.79
2023-02-19T18:59:07.701Z,8.77
2023-02-19T19:02:13.981Z,8.76
2023-02-19T19:05:23.317Z,8.87
2023-02-19T19:08:30.664Z,8.75
2023-02-19T19:11:36.888Z,8.80
2023-02-19T19:14:42.620Z,8.77
2023-02-19T19:17:48.471Z,8.71
2023-02-19T19:20:56.941Z,8.69
2023-02-19T19:24:02.742Z,8.78
2023-02-19T19:27:08.282Z,8.74
2023-02-19T19:30:14.537Z,8.74
2023-02-19T19:33:20.387Z,8.73
2023-02-19T19:36:25.914Z,8.76
2023-02-19T19:39:31.236Z,8.76
2023-02-19T19:42:36.940Z,8.74
2023-02-19T19:45:42.368Z,8.74
2023-02-19T19:48:50.572Z,8.74
2023-02-19T19:52:01.326Z,8.77
2023-02-19T19:55:07.297Z,8.87
2023-02-19T19:58:12.803Z,8.77
2023-02-19T20:01:21.428Z,8.77
2023-02-19T20:04:27.654Z,8.80
2023-02-19T20:07:34.228Z,8.77
2023-02-19T20:10:40.234Z,8.81
2023-02-19T20:13:46.126Z,8.81
2023-02-19T20:16:52.848Z,8.94
2023-02-19T20:19:58.664Z,8.77
2023-02-19T20:23:04.249Z,8.69
2023-02-19T20:26:09.776Z,8.68
2023-02-19T20:29:15.349Z,8.58
2023-02-19T20:32:21.243Z,8.47
2023-02-19T20:35:29.075Z,8.38
2023-02-19T20:38:34.519Z,8.35
2023-02-19T20:41:39.616Z,8.30
2023-02-19T20:44:45.318Z,8.31
2023-02-19T20:47:50.975Z,8.33
2023-02-19T20:51:02.204Z,8.36
2023-02-19T20:54:07.641Z,8.23
2023-02-19T20:57:14.798Z,8.24
2023-02-19T21:00:20.913Z,8.19
2023-02-19T21:03:26.837Z,8.26
2023-02-19T21:06:32.437Z,8.27
2023-02-19T21:09:37.822Z,8.25
2023-02-19T21:12:43.289Z,8.21
2023-02-19T21:15:49.064Z,8.23
2023-02-19T21:18:54.683Z,8.41
2023-02-19T21:22:00.077Z,8.21
2023-02-19T21:25:06.056Z,8.27
2023-02-19T21:28:11.424Z,8.29
2023-02-19T21:31:17.067Z,8.31
2023-02-19T21:34:25.708Z,8.21
2023-02-19T21:37:31.443Z,8.20
2023-02-19T21:40:38.238Z,8.08
2023-02-19T21:43:43.306Z,8.12
2023-02-19T21:46:49.082Z,8.00
2023-02-19T21:49:54.474Z,8.07
2023-02-19T21:53:00.873Z,8.15
2023-02-19T21:56:06.418Z,8.20
2023-02-19T21:59:12.658Z,8.23
2023-02-19T22:02:20.374Z,8.27
2023-02-19T22:05:26.288Z,8.37
2023-02-19T22:08:31.529Z,8.22
2023-02-19T22:11:37.030Z,8.03
2023-02-19T22:14:42.458Z,8.13
2023-02-19T22:17:48.011Z,8.03
2023-02-19T22:20:53.397Z,8.04
2023-02-19T22:23:59.656Z,8.12
2023-02-19T22:27:05.071Z,8.15
2023-02-19T22:30:11.567Z,8.10
2023-02-19T22:33:17.075Z,8.06
2023-02-19T22:36:27.943Z,8.09
2023-02-19T22:39:33.760Z,7.97
2023-02-19T22:42:39.571Z,8.00
2023-02-19T22:45:45.585Z,8.00
2023-02-19T22:48:51.255Z,8.10
2023-02-19T22:52:01.806Z,8.11
2023-02-19T22:55:07.483Z,8.20
2023-02-19T22:58:13.089Z,8.10
2023-02-19T23:01:19.123Z,8.13
2023-02-19T23:04:26.541Z,8.13
2023-02-19T23:07:31.888Z,8.18
2023-02-19T23:10:37.320Z,8.22
2023-02-19T23:13:43.070Z,8.21
2023-02-19T23:16:48.713Z,8.23
2023-02-19T23:19:53.896Z,8.26
2023-02-19T23:22:59.802Z,8.25
2023-02-19T23:26:05.579Z,8.26
2023-02-19T23:29:10.975Z,8.29
2023-02-19T23:32:21.074Z,8.40
2023-02-19T23:35:26.939Z,8.38
2023-02-19T23:38:32.386Z,8.44
2023-02-19T23:41:38.335Z,8.45
2023-02-19T23:44:47.478Z,8.47
2023-02-19T23:47:53.194Z,8.48
2023-02-19T23:50:58.752Z,8.49
2023-02-19T23:54:05.058Z,8.45
2023-02-19T23:57:10.878Z,8.49
